Time;durP1;ratioP1;P1;durP2;ratioP2;P2;SDS_P1;SDS_P2;PMS_P1;PMS_P2;Temp;Humidity;BMP_temperature;BMP_pressure;BME280_temperature;BME280_humidity;BME280_pressure;Samples;Min_cycle;Max_cycle;Signal;HPM_P1;HPM_P2
2022/12/24 00:01:07;;;;;;;;;;;10.50;91.50;;;;;;5073827;28;20011;-33
2022/12/24 00:03:33;;;;;;;;;;;10.50;91.50;;;;;;5073897;28;19916;-34
2022/12/24 00:06:02;;;;;;;;;;;10.50;91.50;;;;;;5073656;28;19962;-34
2022/12/24 00:08:28;;;;;;;;;;;10.50;91.50;;;;;;5073587;28;20012;-34
2022/12/24 00:10:53;;;;;;;;;;;10.50;91.40;;;;;;5073609;28;19951;-33
2022/12/24 00:13:19;;;;;;;;;;;10.50;91.40;;;;;;5072664;28;20418;-33
2022/12/24 00:15:45;;;;;;;;;;;10.50;91.40;;;;;;5073675;28;20326;-36
2022/12/24 00:18:10;;;;;;;;;;;10.50;91.50;;;;;;5073516;28;20003;-33
2022/12/24 00:20:36;;;;;;;;;;;10.40;91.40;;;;;;5073481;28;20338;-33
2022/12/24 00:23:01;;;;;;;;;;;10.40;91.40;;;;;;5073698;28;19912;-34
2022/12/24 00:25:27;;;;;;;;;;;10.50;91.40;;;;;;5073307;28;19913;-33
2022/12/24 00:27:52;;;;;;;;;;;10.40;91.30;;;;;;5073208;28;20295;-34
2022/12/24 00:30:17;;;;;;;;;;;10.40;91.30;;;;;;5073429;28;19955;-33
2022/12/24 00:32:43;;;;;;;;;;;10.40;91.30;;;;;;5073232;28;19912;-34
2022/12/24 00:35:08;;;;;;;;;;;10.40;91.20;;;;;;5072939;28;19917;-34
2022/12/24 00:37:34;;;;;;;;;;;10.40;91.10;;;;;;5071907;28;19919;-34
2022/12/24 00:39:59;;;;;;;;;;;10.40;91.10;;;;;;5072911;28;19995;-34
2022/12/24 00:42:25;;;;;;;;;;;10.40;91.20;;;;;;5073062;28;20376;-34
2022/12/24 00:44:50;;;;;;;;;;;10.40;91.10;;;;;;5072784;28;19924;-34
2022/12/24 00:47:16;;;;;;;;;;;10.40;91.20;;;;;;5072845;28;19920;-34
2022/12/24 00:49:41;;;;;;;;;;;10.40;91.10;;;;;;5072735;28;19912;-34
2022/12/24 00:52:07;;;;;;;;;;;10.40;91.20;;;;;;5072730;28;20384;-46
2022/12/24 00:54:32;;;;;;;;;;;10.40;91.10;;;;;;5072614;28;19990;-34
2022/12/24 00:56:58;;;;;;;;;;;10.40;91.10;;;;;;5072887;28;19919;-34
2022/12/24 00:59:23;;;;;;;;;;;10.40;91.10;;;;;;5073072;28;19919;-34
2022/12/24 01:01:49;;;;;;;;;;;10.40;91.00;;;;;;5072530;28;19936;-34
2022/12/24 01:06:58;;;;;;;;;;;10.40;91.00;;;;;;5072531;28;19967;-33
2022/12/24 01:09:24;;;;;;;;;;;10.40;91.00;;;;;;5072501;28;19913;-34
2022/12/24 01:11:49;;;;;;;;;;;10.30;90.90;;;;;;5072311;28;20318;-33
2022/12/24 01:14:15;;;;;;;;;;;10.30;90.90;;;;;;5072175;28;19945;-34
2022/12/24 01:16:40;;;;;;;;;;;10.40;91.00;;;;;;5072406;28;19935;-32
2022/12/24 01:19:06;;;;;;;;;;;10.30;90.90;;;;;;5072553;28;20023;-34
2022/12/24 01:21:31;;;;;;;;;;;10.30;90.90;;;;;;5072501;28;19913;-36
2022/12/24 01:23:57;;;;;;;;;;;10.30;90.90;;;;;;5072333;28;20003;-34
2022/12/24 01:26:22;;;;;;;;;;;10.30;90.90;;;;;;5072483;28;19919;-34
2022/12/24 01:28:48;;;;;;;;;;;10.30;90.90;;;;;;5072236;28;20399;-34
2022/12/24 01:31:14;;;;;;;;;;;10.30;91.00;;;;;;5072042;28;19952;-34
2022/12/24 01:33:40;;;;;;;;;;;10.30;91.00;;;;;;5072132;28;20453;-34
2022/12/24 01:36:06;;;;;;;;;;;10.30;90.90;;;;;;5072020;28;19956;-34
2022/12/24 01:38:31;;;;;;;;;;;10.30;91.00;;;;;;5071966;28;19913;-34
2022/12/24 01:43:41;;;;;;;;;;;10.30;91.00;;;;;;5072109;28;20434;-34
2022/12/24 01:46:13;;;;;;;;;;;10.30;91.00;;;;;;5072082;28;19913;-33
2022/12/24 01:48:51;;;;;;;;;;;10.30;91.00;;;;;;5072032;28;19995;-34
2022/12/24 01:51:28;;;;;;;;;;;10.20;91.00;;;;;;5072294;28;19913;-34
2022/12/24 01:53:57;;;;;;;;;;;10.20;91.00;;;;;;5072026;28;20408;-34
2022/12/24 01:56:23;;;;;;;;;;;10.20;91.00;;;;;;5071909;28;19913;-34
2022/12/24 01:58:51;;;;;;;;;;;10.20;91.10;;;;;;5071911;28;19913;-34
2022/12/24 02:01:17;;;;;;;;;;;10.20;91.10;;;;;;5072296;28;19977;-34
2022/12/24 02:03:43;;;;;;;;;;;10.10;91.00;;;;;;5071896;28;19916;-34
2022/12/24 02:06:10;;;;;;;;;;;10.10;91.10;;;;;;5071717;28;19912;-34
2022/12/24 02:08:39;;;;;;;;;;;10.10;91.10;;;;;;5071779;28;19920;-35
2022/12/24 02:11:08;;;;;;;;;;;10.10;91.10;;;;;;5071827;28;19916;-36
2022/12/24 02:13:34;;;;;;;;;;;10.00;91.20;;;;;;5071974;28;20272;-35
2022/12/24 02:16:09;;;;;;;;;;;10.00;91.20;;;;;;5071607;28;19925;-37
2022/12/24 02:18:34;;;;;;;;;;;10.00;91.20;;;;;;5071714;28;20007;-40
2022/12/24 02:21:22;;;;;;;;;;;9.90;91.20;;;;;;5071616;28;19951;-38
2022/12/24 02:23:50;;;;;;;;;;;9.90;91.30;;;;;;5071678;28;19912;-37
2022/12/24 02:26:35;;;;;;;;;;;9.90;91.30;;;;;;5071885;28;20368;-35
2022/12/24 02:29:23;;;;;;;;;;;9.90;91.30;;;;;;5071437;28;19913;-37
2022/12/24 02:31:48;;;;;;;;;;;9.80;91.30;;;;;;5071411;28;19912;-35
2022/12/24 02:34:17;;;;;;;;;;;9.70;91.40;;;;;;5071790;28;19917;-48
2022/12/24 02:36:45;;;;;;;;;;;9.70;91.40;;;;;;5074427;28;19956;-35
2022/12/24 02:39:14;;;;;;;;;;;9.60;91.40;;;;;;5075192;28;19920;-35
2022/12/24 02:42:05;;;;;;;;;;;9.60;91.50;;;;;;5075226;28;19923;-34
2022/12/24 02:44:34;;;;;;;;;;;9.60;91.50;;;;;;5075533;28;20379;-34
2022/12/24 02:47:00;;;;;;;;;;;9.50;91.50;;;;;;5075093;28;19966;-34
2022/12/24 02:49:25;;;;;;;;;;;9.50;91.60;;;;;;5075334;28;20391;-34
2022/12/24 02:51:51;;;;;;;;;;;9.50;91.60;;;;;;5074930;28;19912;-34
2022/12/24 02:54:16;;;;;;;;;;;9.40;91.60;;;;;;5075014;28;19917;-36
2022/12/24 02:57:00;;;;;;;;;;;9.40;91.60;;;;;;5075209;28;19912;-34
2022/12/24 02:59:32;;;;;;;;;;;9.40;91.70;;;;;;5075281;28;19938;-36
2022/12/24 03:02:03;;;;;;;;;;;9.30;91.70;;;;;;5074886;28;19912;-34
2022/12/24 03:04:40;;;;;;;;;;;9.30;91.70;;;;;;5074850;28;19913;-36
2022/12/24 03:07:11;;;;;;;;;;;9.30;91.70;;;;;;5074843;28;19960;-35
2022/12/24 03:09:36;;;;;;;;;;;9.30;91.70;;;;;;5075112;28;20478;-34
2022/12/24 03:12:25;;;;;;;;;;;9.30;91.70;;;;;;5074735;28;19969;-34
2022/12/24 03:14:51;;;;;;;;;;;9.20;91.70;;;;;;5074371;28;19920;-34
2022/12/24 03:17:16;;;;;;;;;;;9.20;91.80;;;;;;5074901;28;20449;-36
2022/12/24 03:19:42;;;;;;;;;;;9.30;91.80;;;;;;5074521;28;19912;-38
2022/12/24 03:22:09;;;;;;;;;;;9.30;91.80;;;;;;5074687;28;19912;-34
2022/12/24 03:24:35;;;;;;;;;;;9.20;91.70;;;;;;5074675;28;19913;-34
2022/12/24 03:27:01;;;;;;;;;;;9.20;91.80;;;;;;5074158;28;19962;-34
2022/12/24 03:29:26;;;;;;;;;;;9.20;91.80;;;;;;5074491;28;19920;-34
2022/12/24 03:31:57;;;;;;;;;;;9.30;91.80;;;;;;5074341;28;20011;-33
2022/12/24 03:34:23;;;;;;;;;;;9.30;91.80;;;;;;5074228;28;19923;-34
2022/12/24 03:36:48;;;;;;;;;;;9.30;91.70;;;;;;5074178;28;19912;-34
2022/12/24 03:39:14;;;;;;;;;;;9.30;91.70;;;;;;5074183;28;19919;-34
2022/12/24 03:41:39;;;;;;;;;;;9.30;91.70;;;;;;5074116;28;19961;-36
2022/12/24 03:44:05;;;;;;;;;;;9.30;91.70;;;;;;5074285;28;19912;-34
2022/12/24 03:46:30;;;;;;;;;;;9.30;91.70;;;;;;5073253;28;19963;-33
2022/12/24 03:48:57;;;;;;;;;;;9.30;91.70;;;;;;5073663;28;20001;-34
2022/12/24 03:51:23;;;;;;;;;;;9.40;91.70;;;;;;5073869;28;19912;-34
2022/12/24 03:53:50;;;;;;;;;;;9.40;91.70;;;;;;5074288;28;20400;-34
2022/12/24 03:56:16;;;;;;;;;;;9.40;91.70;;;;;;5073925;28;19920;-35
2022/12/24 03:58:42;;;;;;;;;;;9.50;91.70;;;;;;5074116;28;19913;-35
2022/12/24 04:01:07;;;;;;;;;;;9.50;91.70;;;;;;5073724;28;20636;-34
2022/12/24 04:03:32;;;;;;;;;;;9.50;91.70;;;;;;5072476;28;20257;-34
2022/12/24 04:06:08;;;;;;;;;;;9.50;91.60;;;;;;5074015;28;19912;-34
2022/12/24 04:08:34;;;;;;;;;;;9.60;91.70;;;;;;5073706;28;19913;-34
2022/12/24 04:11:00;;;;;;;;;;;9.60;91.70;;;;;;5073799;28;19916;-34
2022/12/24 04:13:25;;;;;;;;;;;9.60;91.70;;;;;;5073469;28;20287;-34
2022/12/24 04:16:01;;;;;;;;;;;9.60;91.70;;;;;;5073391;28;19946;-34
2022/12/24 04:18:26;;;;;;;;;;;9.70;91.70;;;;;;5072190;28;20338;-34
2022/12/24 04:20:52;;;;;;;;;;;9.70;91.70;;;;;;5073708;28;19912;-34
2022/12/24 04:23:18;;;;;;;;;;;9.70;91.70;;;;;;5073293;28;20313;-44
2022/12/24 04:25:43;;;;;;;;;;;9.80;91.70;;;;;;5073445;28;20275;-36
2022/12/24 04:28:08;;;;;;;;;;;9.80;91.70;;;;;;5073171;28;19936;-34
2022/12/24 04:30:34;;;;;;;;;;;9.80;91.70;;;;;;5073371;28;19919;-34
2022/12/24 04:32:59;;;;;;;;;;;9.80;91.80;;;;;;5073315;28;19918;-34
2022/12/24 04:35:25;;;;;;;;;;;9.90;91.80;;;;;;5073426;28;19916;-36
2022/12/24 04:37:50;;;;;;;;;;;9.90;91.80;;;;;;5073121;28;20352;-34
2022/12/24 04:40:16;;;;;;;;;;;9.90;91.80;;;;;;5073028;28;19912;-34
2022/12/24 04:42:41;;;;;;;;;;;9.90;91.80;;;;;;5073018;28;19942;-34
2022/12/24 04:45:07;;;;;;;;;;;10.00;91.80;;;;;;5073035;28;19991;-34
2022/12/24 04:47:33;;;;;;;;;;;10.00;91.80;;;;;;5072817;28;19973;-34
2022/12/24 04:50:00;;;;;;;;;;;10.10;91.80;;;;;;5072869;28;19918;-34
2022/12/24 04:52:26;;;;;;;;;;;10.00;92.00;;;;;;5072726;28;19920;-34
2022/12/24 04:54:51;;;;;;;;;;;10.10;91.80;;;;;;5072568;28;19916;-34
2022/12/24 04:57:17;;;;;;;;;;;10.10;91.80;;;;;;5072623;28;19920;-35
2022/12/24 04:59:42;;;;;;;;;;;10.20;91.80;;;;;;5072247;28;19920;-35
2022/12/24 05:02:08;;;;;;;;;;;10.20;91.80;;;;;;5072616;28;19913;-35
2022/12/24 05:04:33;;;;;;;;;;;10.20;91.80;;;;;;5072681;28;19961;-34
2022/12/24 05:06:59;;;;;;;;;;;10.20;91.90;;;;;;5072338;28;20315;-34
2022/12/24 05:09:24;;;;;;;;;;;10.20;91.80;;;;;;5072543;28;19913;-34
2022/12/24 05:11:49;;;;;;;;;;;10.30;91.80;;;;;;5072627;28;19978;-33
2022/12/24 05:14:15;;;;;;;;;;;10.30;91.90;;;;;;5072261;28;19917;-35
2022/12/24 05:16:40;;;;;;;;;;;10.30;91.80;;;;;;5072281;28;19932;-34
2022/12/24 05:19:06;;;;;;;;;;;10.30;91.90;;;;;;5072677;28;19908;-35
2022/12/24 05:21:31;;;;;;;;;;;10.40;91.90;;;;;;5072489;28;19974;-34
2022/12/24 05:26:43;;;;;;;;;;;10.40;91.90;;;;;;5072563;28;20007;-34
2022/12/24 05:29:11;;;;;;;;;;;10.40;91.90;;;;;;5072486;28;20416;-34
2022/12/24 05:31:38;;;;;;;;;;;10.40;91.90;;;;;;5072475;28;20273;-35
2022/12/24 05:34:04;;;;;;;;;;;10.40;91.90;;;;;;5072076;28;20280;-35
2022/12/24 05:36:30;;;;;;;;;;;10.40;91.90;;;;;;5070865;28;19908;-34
2022/12/24 05:38:56;;;;;;;;;;;10.40;91.90;;;;;;5072170;28;19909;-35
2022/12/24 05:41:21;;;;;;;;;;;10.40;91.90;;;;;;5072082;28;19908;-35
2022/12/24 05:43:47;;;;;;;;;;;10.40;91.90;;;;;;5072209;28;19944;-36
2022/12/24 05:46:14;;;;;;;;;;;10.40;91.90;;;;;;5072355;28;19962;-35
2022/12/24 05:48:39;;;;;;;;;;;10.40;91.90;;;;;;5072064;28;19951;-35
2022/12/24 05:51:08;;;;;;;;;;;10.40;92.00;;;;;;5071973;28;19932;-36
2022/12/24 05:53:34;;;;;;;;;;;10.40;92.00;;;;;;5072252;28;19928;-36
2022/12/24 05:56:03;;;;;;;;;;;10.40;92.00;;;;;;5070602;28;19924;-36
2022/12/24 05:58:28;;;;;;;;;;;10.40;92.00;;;;;;5072171;28;19908;-35
2022/12/24 06:00:54;;;;;;;;;;;10.50;92.00;;;;;;5071797;28;19908;-38
2022/12/24 06:03:19;;;;;;;;;;;10.50;92.00;;;;;;5072003;28;20387;-34
2022/12/24 06:05:44;;;;;;;;;;;10.50;92.00;;;;;;5070302;28;20005;-35
2022/12/24 06:08:10;;;;;;;;;;;10.50;92.00;;;;;;5071973;28;19908;-33
2022/12/24 06:10:35;;;;;;;;;;;10.50;92.10;;;;;;5071846;28;19994;-35
2022/12/24 06:13:01;;;;;;;;;;;10.50;92.00;;;;;;5075617;28;20368;-36
2022/12/24 06:15:26;;;;;;;;;;;10.50;92.00;;;;;;5075836;28;20279;-36
2022/12/24 06:17:52;;;;;;;;;;;10.50;92.00;;;;;;5075853;28;19962;-36
2022/12/24 06:20:17;;;;;;;;;;;10.50;92.00;;;;;;5076025;28;19963;-39
2022/12/24 06:22:43;;;;;;;;;;;10.50;92.00;;;;;;5075851;28;19915;-35
2022/12/24 06:25:08;;;;;;;;;;;10.50;92.00;;;;;;5076000;28;19916;-34
2022/12/24 06:27:34;;;;;;;;;;;10.50;92.30;;;;;;5075873;28;19909;-35
2022/12/24 06:29:59;;;;;;;;;;;10.60;92.00;;;;;;5075731;28;19912;-35
2022/12/24 06:32:24;;;;;;;;;;;10.50;92.00;;;;;;5074447;28;20390;-35
2022/12/24 06:34:50;;;;;;;;;;;10.60;92.00;;;;;;5075495;28;19977;-35
2022/12/24 06:37:18;;;;;;;;;;;10.60;92.00;;;;;;5075521;28;19912;-36
2022/12/24 06:39:45;;;;;;;;;;;10.60;92.00;;;;;;5075412;28;19908;-48
2022/12/24 06:42:11;;;;;;;;;;;10.60;92.00;;;;;;5075757;28;20128;-35
2022/12/24 06:44:36;;;;;;;;;;;10.60;92.00;;;;;;5075393;28;19954;-35
2022/12/24 06:47:02;;;;;;;;;;;10.60;92.00;;;;;;5075161;28;19966;-35
2022/12/24 06:49:27;;;;;;;;;;;10.60;92.00;;;;;;5074097;28;19909;-36
2022/12/24 06:51:52;;;;;;;;;;;10.60;92.00;;;;;;5075428;28;20344;-34
2022/12/24 06:54:18;;;;;;;;;;;10.60;91.90;;;;;;5075161;28;20292;-36
2022/12/24 06:56:43;;;;;;;;;;;10.60;91.90;;;;;;5075159;28;19920;-43
2022/12/24 06:59:09;;;;;;;;;;;10.60;91.90;;;;;;5075017;28;19912;-37
2022/12/24 07:01:34;;;;;;;;;;;10.60;91.90;;;;;;5074871;28;20347;-36
2022/12/24 07:04:00;;;;;;;;;;;10.70;91.90;;;;;;5075110;28;19939;-35
2022/12/24 07:06:27;;;;;;;;;;;10.70;91.90;;;;;;5074870;28;19909;-35
2022/12/24 07:08:53;;;;;;;;;;;10.60;91.90;;;;;;5075086;28;20000;-36
2022/12/24 07:11:18;;;;;;;;;;;10.70;91.90;;;;;;5074776;28;19974;-36
2022/12/24 07:13:45;;;;;;;;;;;10.70;91.90;;;;;;5074647;28;20296;-35
2022/12/24 07:16:10;;;;;;;;;;;10.70;91.90;;;;;;5074568;28;20053;-36
2022/12/24 07:18:36;;;;;;;;;;;10.70;91.90;;;;;;5075001;28;19973;-36
2022/12/24 07:21:03;;;;;;;;;;;10.70;91.90;;;;;;5074752;28;19908;-36
2022/12/24 07:23:30;;;;;;;;;;;10.70;91.80;;;;;;5073095;28;19908;-35
2022/12/24 07:25:58;;;;;;;;;;;10.70;91.80;;;;;;5074775;28;20441;-35
2022/12/24 07:28:24;;;;;;;;;;;10.70;91.80;;;;;;5074823;28;20428;-36
2022/12/24 07:30:49;;;;;;;;;;;10.70;91.80;;;;;;5074676;28;19948;-35
2022/12/24 07:33:14;;;;;;;;;;;10.70;91.80;;;;;;5074298;28;20361;-35
2022/12/24 07:35:40;;;;;;;;;;;10.70;91.80;;;;;;5074284;28;20010;-37
2022/12/24 07:38:05;;;;;;;;;;;10.70;91.80;;;;;;5074292;28;19934;-35
2022/12/24 07:40:32;;;;;;;;;;;10.70;91.80;;;;;;5074262;28;19909;-36
2022/12/24 07:42:58;;;;;;;;;;;10.70;91.80;;;;;;5074268;28;19909;-36
2022/12/24 07:45:23;;;;;;;;;;;10.70;91.80;;;;;;5074465;28;19916;-34
2022/12/24 07:47:49;;;;;;;;;;;10.70;91.80;;;;;;5074148;28;19919;-34
2022/12/24 07:50:14;;;;;;;;;;;10.70;91.80;;;;;;5074092;28;20006;-36
2022/12/24 07:52:39;;;;;;;;;;;10.70;91.80;;;;;;5074230;28;19909;-35
2022/12/24 07:55:05;;;;;;;;;;;10.70;91.80;;;;;;5074222;28;19912;-36
2022/12/24 07:57:31;;;;;;;;;;;10.70;91.80;;;;;;5073838;28;19908;-42
2022/12/24 07:59:56;;;;;;;;;;;10.70;91.70;;;;;;5073858;28;20001;-36
2022/12/24 08:02:22;;;;;;;;;;;10.70;91.70;;;;;;5072560;28;19915;-35
2022/12/24 08:04:48;;;;;;;;;;;10.70;91.70;;;;;;5074015;28;20249;-36
2022/12/24 08:07:13;;;;;;;;;;;10.70;91.70;;;;;;5073776;28;19908;-37
2022/12/24 08:09:39;;;;;;;;;;;10.70;91.70;;;;;;5073811;28;19974;-36
2022/12/24 08:12:04;;;;;;;;;;;10.70;91.70;;;;;;5073914;28;20363;-36
2022/12/24 08:14:30;;;;;;;;;;;10.70;91.70;;;;;;5073490;28;20007;-35
2022/12/24 08:16:56;;;;;;;;;;;10.70;91.60;;;;;;5073943;28;19912;-36
2022/12/24 08:19:22;;;;;;;;;;;10.70;91.60;;;;;;5073571;28;19908;-34
2022/12/24 08:21:47;;;;;;;;;;;10.70;91.60;;;;;;5073830;28;20287;-36
2022/12/24 08:24:13;;;;;;;;;;;10.70;91.60;;;;;;5073644;28;19909;-35
2022/12/24 08:26:38;;;;;;;;;;;10.70;91.60;;;;;;5073231;28;20329;-36
2022/12/24 08:29:04;;;;;;;;;;;10.70;91.60;;;;;;5073150;28;19908;-35
2022/12/24 08:31:30;;;;;;;;;;;10.70;91.60;;;;;;5073360;28;19912;-36
2022/12/24 08:33:55;;;;;;;;;;;10.70;91.60;;;;;;5072902;28;19916;-35
2022/12/24 08:36:21;;;;;;;;;;;10.70;91.50;;;;;;5073214;28;19912;-37
2022/12/24 08:38:46;;;;;;;;;;;10.70;91.50;;;;;;5073106;28;19909;-35
2022/12/24 08:41:11;;;;;;;;;;;10.70;91.50;;;;;;5073106;28;19958;-34
2022/12/24 08:43:37;;;;;;;;;;;10.70;91.50;;;;;;5073144;28;19995;-35
2022/12/24 08:46:03;;;;;;;;;;;10.80;91.50;;;;;;5073192;28;19915;-35
2022/12/24 08:48:29;;;;;;;;;;;10.70;91.50;;;;;;5073040;28;19991;-38
2022/12/24 08:50:54;;;;;;;;;;;10.80;91.50;;;;;;5073227;28;20054;-37
2022/12/24 08:53:20;;;;;;;;;;;10.80;91.50;;;;;;5072906;28;19916;-34
2022/12/24 08:55:47;;;;;;;;;;;10.80;91.40;;;;;;5072668;28;19912;-35
2022/12/24 08:58:12;;;;;;;;;;;10.80;91.50;;;;;;5073027;28;19915;-35
2022/12/24 09:00:38;;;;;;;;;;;10.80;91.30;;;;;;5073021;28;20341;-36
2022/12/24 09:03:03;;;;;;;;;;;10.80;91.40;;;;;;5072561;28;19908;-36
2022/12/24 09:05:29;;;;;;;;;;;10.80;91.40;;;;;;5072662;28;20293;-37
2022/12/24 09:07:54;;;;;;;;;;;10.90;91.40;;;;;;5072453;28;20000;-36
2022/12/24 09:10:20;;;;;;;;;;;10.90;91.40;;;;;;5072640;28;19912;-38
2022/12/24 09:12:46;;;;;;;;;;;10.90;91.40;;;;;;5072616;28;20407;-44
2022/12/24 09:15:13;;;;;;;;;;;10.90;91.30;;;;;;5072205;28;20132;-48
2022/12/24 09:17:38;;;;;;;;;;;10.90;91.30;;;;;;5072535;28;19915;-36
2022/12/24 09:20:05;;;;;;;;;;;10.90;91.30;;;;;;5072616;28;19909;-36
2022/12/24 09:22:33;;;;;;;;;;;10.90;91.30;;;;;;5072709;28;19914;-36
2022/12/24 09:24:58;;;;;;;;;;;10.90;91.30;;;;;;5072253;28;19909;-35
2022/12/24 09:27:24;;;;;;;;;;;10.90;91.30;;;;;;5072299;28;20364;-36
2022/12/24 09:29:49;;;;;;;;;;;10.90;91.30;;;;;;5072277;28;19916;-36
2022/12/24 09:32:14;;;;;;;;;;;10.90;91.30;;;;;;5072669;28;19915;-36
2022/12/24 09:34:40;;;;;;;;;;;11.00;91.20;;;;;;5072409;28;20358;-36
2022/12/24 09:37:05;;;;;;;;;;;11.00;91.20;;;;;;5072294;28;19915;-35
2022/12/24 09:39:31;;;;;;;;;;;10.90;91.20;;;;;;5072583;28;19961;-36
2022/12/24 09:42:13;;;;;;;;;;;11.00;91.20;;;;;;5072553;28;19962;-36
2022/12/24 09:44:52;;;;;;;;;;;11.00;91.20;;;;;;5071879;28;20260;-36
2022/12/24 09:47:25;;;;;;;;;;;11.00;91.20;;;;;;5072224;28;19909;-35
2022/12/24 09:49:52;;;;;;;;;;;11.00;91.20;;;;;;5072171;28;19955;-35
2022/12/24 09:52:31;;;;;;;;;;;11.00;91.20;;;;;;5072266;28;19908;-36
2022/12/24 09:55:00;;;;;;;;;;;11.00;91.10;;;;;;5071951;28;19938;-36
2022/12/24 09:57:33;;;;;;;;;;;11.00;91.10;;;;;;5072264;28;19952;-36
2022/12/24 09:59:58;;;;;;;;;;;11.10;91.10;;;;;;5072212;28;19908;-36
2022/12/24 10:02:24;;;;;;;;;;;11.10;91.10;;;;;;5070579;28;20379;-37
2022/12/24 10:04:49;;;;;;;;;;;11.10;91.00;;;;;;5072055;28;20411;-36
2022/12/24 10:07:27;;;;;;;;;;;11.10;91.00;;;;;;5071866;28;19909;-36
2022/12/24 10:10:11;;;;;;;;;;;11.10;91.00;;;;;;5072192;28;19908;-34
2022/12/24 10:12:37;;;;;;;;;;;11.10;91.00;;;;;;5072112;28;20292;-36
2022/12/24 10:15:02;;;;;;;;;;;11.10;90.90;;;;;;5071820;28;19916;-36
2022/12/24 10:17:39;;;;;;;;;;;11.10;90.90;;;;;;5071810;28;19909;-45
2022/12/24 10:20:10;;;;;;;;;;;11.10;90.80;;;;;;5071654;28;20280;-43
2022/12/24 10:22:54;;;;;;;;;;;11.20;90.80;;;;;;5072015;28;19909;-35
2022/12/24 10:25:27;;;;;;;;;;;11.20;90.90;;;;;;5071808;28;19966;-38
2022/12/24 10:27:53;;;;;;;;;;;11.20;90.90;;;;;;5071805;28;19909;-35
2022/12/24 10:30:20;;;;;;;;;;;11.20;90.80;;;;;;5071688;28;20060;-37
2022/12/24 10:32:47;;;;;;;;;;;11.20;90.80;;;;;;5071609;28;20026;-34
2022/12/24 10:35:15;;;;;;;;;;;11.20;90.80;;;;;;5071947;28;20279;-37
2022/12/24 10:37:42;;;;;;;;;;;11.20;90.80;;;;;;5071598;28;19970;-37
2022/12/24 10:40:13;;;;;;;;;;;11.30;90.80;;;;;;5071519;28;20376;-40
2022/12/24 10:42:41;;;;;;;;;;;11.30;90.70;;;;;;5071797;28;19915;-37
2022/12/24 10:45:12;;;;;;;;;;;11.30;90.70;;;;;;5071809;28;20008;-36
2022/12/24 10:47:39;;;;;;;;;;;11.40;90.70;;;;;;5071835;28;19995;-37
2022/12/24 10:50:23;;;;;;;;;;;11.40;90.60;;;;;;5071745;28;20001;-35
2022/12/24 10:52:50;;;;;;;;;;;11.40;90.90;;;;;;5071542;28;19909;-36
2022/12/24 10:55:18;;;;;;;;;;;11.50;90.60;;;;;;5071274;28;20003;-36
2022/12/24 10:57:44;;;;;;;;;;;11.50;90.40;;;;;;5074387;28;19982;-36
2022/12/24 11:00:20;;;;;;;;;;;11.50;90.40;;;;;;5075348;28;19913;-36
2022/12/24 11:02:46;;;;;;;;;;;11.60;90.40;;;;;;5073871;28;19908;-36
2022/12/24 11:05:29;;;;;;;;;;;11.60;90.30;;;;;;5074859;28;20003;-41
2022/12/24 11:08:12;;;;;;;;;;;11.60;90.30;;;;;;5075286;28;20350;-35
2022/12/24 11:10:42;;;;;;;;;;;11.60;90.50;;;;;;5075118;28;19916;-36
2022/12/24 11:13:22;;;;;;;;;;;11.60;90.40;;;;;;5075080;28;19970;-36
2022/12/24 11:15:50;;;;;;;;;;;11.60;90.30;;;;;;5074793;28;19917;-36
2022/12/24 11:18:16;;;;;;;;;;;11.60;90.30;;;;;;5075102;28;19909;-37
2022/12/24 11:20:47;;;;;;;;;;;11.60;90.30;;;;;;5074997;28;19930;-37
2022/12/24 11:23:15;;;;;;;;;;;11.60;90.10;;;;;;5073404;28;20379;-35
2022/12/24 11:25:45;;;;;;;;;;;11.60;90.20;;;;;;5074571;28;19908;-37
2022/12/24 11:28:15;;;;;;;;;;;11.60;90.20;;;;;;5074713;28;19931;-37
2022/12/24 11:30:40;;;;;;;;;;;11.60;90.10;;;;;;5074907;28;19909;-36
2022/12/24 11:33:06;;;;;;;;;;;11.50;90.00;;;;;;5074332;28;19940;-35
2022/12/24 11:35:32;;;;;;;;;;;11.50;90.00;;;;;;5074425;28;19973;-36
2022/12/24 11:38:01;;;;;;;;;;;11.50;90.00;;;;;;5074528;28;19919;-37
2022/12/24 11:40:34;;;;;;;;;;;11.60;90.30;;;;;;5074448;28;20059;-35
2022/12/24 11:42:59;;;;;;;;;;;11.50;89.70;;;;;;5074245;28;20410;-36
2022/12/24 11:45:27;;;;;;;;;;;11.50;90.00;;;;;;5074207;28;19908;-35
2022/12/24 11:47:53;;;;;;;;;;;11.50;90.00;;;;;;5074329;28;19916;-38
2022/12/24 11:50:18;;;;;;;;;;;11.50;89.90;;;;;;5074395;28;19908;-36
2022/12/24 11:52:45;;;;;;;;;;;11.40;89.90;;;;;;5074137;28;19915;-34
2022/12/24 11:55:23;;;;;;;;;;;11.40;89.80;;;;;;5073824;28;20368;-36
2022/12/24 11:57:52;;;;;;;;;;;11.40;90.00;;;;;;5073864;28;19915;-36
2022/12/24 12:00:18;;;;;;;;;;;11.50;89.90;;;;;;5073993;28;19909;-35
2022/12/24 12:02:45;;;;;;;;;;;11.50;89.60;;;;;;5073952;28;19908;-35
2022/12/24 12:05:31;;;;;;;;;;;11.50;89.30;;;;;;5073934;28;19974;-36
2022/12/24 12:08:06;;;;;;;;;;;11.60;89.40;;;;;;5072224;28;19909;-36
2022/12/24 12:10:36;;;;;;;;;;;11.60;88.80;;;;;;5072583;28;20024;-36
2022/12/24 12:13:04;;;;;;;;;;;11.70;88.70;;;;;;5073694;28;19913;-37
2022/12/24 12:15:33;;;;;;;;;;;11.70;88.50;;;;;;5073544;28;19947;-38
2022/12/24 12:18:20;;;;;;;;;;;11.80;88.40;;;;;;5073828;28;19967;-36
2022/12/24 12:21:04;;;;;;;;;;;11.80;88.30;;;;;;5073733;28;19909;-36
2022/12/24 12:23:35;;;;;;;;;;;11.80;88.20;;;;;;5073696;28;19913;-36
2022/12/24 12:26:03;;;;;;;;;;;11.80;88.00;;;;;;5073326;28;19916;-36
2022/12/24 12:28:29;;;;;;;;;;;11.70;88.20;;;;;;5073737;28;19915;-35
2022/12/24 12:30:59;;;;;;;;;;;11.70;88.10;;;;;;5073253;28;20007;-35
2022/12/24 12:33:29;;;;;;;;;;;11.60;88.00;;;;;;5073604;28;20205;-36
2022/12/24 12:35:56;;;;;;;;;;;11.60;87.90;;;;;;5073405;28;20376;-34
2022/12/24 12:38:22;;;;;;;;;;;11.60;88.00;;;;;;5073313;28;20318;-37
2022/12/24 12:40:54;;;;;;;;;;;11.60;88.30;;;;;;5073312;28;19924;-36
2022/12/24 12:43:38;;;;;;;;;;;11.50;88.20;;;;;;5073367;28;19908;-36
2022/12/24 12:46:27;;;;;;;;;;;11.50;88.50;;;;;;5072879;28;19912;-36
2022/12/24 12:49:18;;;;;;;;;;;11.50;88.40;;;;;;5062045;28;19916;-38
2022/12/24 12:51:50;;;;;;;;;;;11.50;87.90;;;;;;5068734;28;19909;-35
2022/12/24 12:54:34;;;;;;;;;;;11.40;87.60;;;;;;5072957;28;19915;-35
2022/12/24 12:57:04;;;;;;;;;;;11.40;87.40;;;;;;5072614;28;20006;-36
2022/12/24 12:59:32;;;;;;;;;;;11.40;87.60;;;;;;5072692;28;19920;-36
2022/12/24 13:02:02;;;;;;;;;;;11.40;87.40;;;;;;5072557;28;19994;-35
2022/12/24 13:04:33;;;;;;;;;;;11.40;87.20;;;;;;5072323;28;20359;-35
2022/12/24 13:07:05;;;;;;;;;;;11.40;87.40;;;;;;5072196;28;20280;-36
2022/12/24 13:09:36;;;;;;;;;;;11.50;87.40;;;;;;5072420;28;19908;-36
2022/12/24 13:12:20;;;;;;;;;;;11.50;87.40;;;;;;5072452;28;19909;-38
2022/12/24 13:14:56;;;;;;;;;;;11.60;87.10;;;;;;5072207;28;19920;-35
2022/12/24 13:17:28;;;;;;;;;;;11.70;87.10;;;;;;5071225;28;19981;-36
2022/12/24 13:20:02;;;;;;;;;;;11.70;86.80;;;;;;5071890;28;19913;-35
2022/12/24 13:22:28;;;;;;;;;;;11.80;86.90;;;;;;5072177;28;19909;-35
2022/12/24 13:24:54;;;;;;;;;;;11.80;86.70;;;;;;5072294;28;19915;-35
2022/12/24 13:27:27;;;;;;;;;;;11.80;86.90;;;;;;5072320;28;19962;-36
2022/12/24 13:29:57;;;;;;;;;;;11.90;86.60;;;;;;5072161;28;19908;-36
2022/12/24 13:32:23;;;;;;;;;;;11.90;86.30;;;;;;5072644;28;19908;-36
2022/12/24 13:34:48;;;;;;;;;;;11.90;85.30;;;;;;5072167;28;19933;-36
2022/12/24 13:37:19;;;;;;;;;;;11.90;85.10;;;;;;5072129;28;20382;-36
2022/12/24 13:40:02;;;;;;;;;;;11.80;84.50;;;;;;5072211;28;19909;-35
2022/12/24 13:42:46;;;;;;;;;;;11.80;84.40;;;;;;5072247;28;19963;-35
2022/12/24 13:45:33;;;;;;;;;;;11.70;84.80;;;;;;5072010;28;19908;-36
2022/12/24 13:48:04;;;;;;;;;;;11.70;84.60;;;;;;5072141;28;19908;-38
2022/12/24 13:50:56;;;;;;;;;;;11.60;84.50;;;;;;5072241;28;20006;-37
2022/12/24 13:53:24;;;;;;;;;;;11.50;84.70;;;;;;5068167;28;19908;-37
2022/12/24 13:56:08;;;;;;;;;;;11.50;85.20;;;;;;5072048;28;20011;-35
2022/12/24 13:58:35;;;;;;;;;;;11.40;85.40;;;;;;5072073;28;20232;-38
2022/12/24 14:01:01;;;;;;;;;;;11.40;85.90;;;;;;5071836;28;19915;-35
2022/12/24 14:03:47;;;;;;;;;;;11.30;86.20;;;;;;5072074;28;19908;-34
2022/12/24 14:06:33;;;;;;;;;;;11.30;86.50;;;;;;5071798;28;19909;-36
2022/12/24 14:09:09;;;;;;;;;;;11.30;86.60;;;;;;5071131;28;19909;-46
2022/12/24 14:11:55;;;;;;;;;;;11.30;86.70;;;;;;5071846;28;19908;-34
2022/12/24 14:14:40;;;;;;;;;;;11.40;86.90;;;;;;5030312;28;19923;-36
2022/12/24 14:17:18;;;;;;;;;;;11.40;86.70;;;;;;5072004;28;19915;-36
2022/12/24 14:19:57;;;;;;;;;;;11.40;86.70;;;;;;5071917;28;19947;-35
2022/12/24 14:22:33;;;;;;;;;;;11.30;86.70;;;;;;5071802;28;19908;-37
2022/12/24 14:25:05;;;;;;;;;;;11.30;86.70;;;;;;5071671;28;19940;-35
2022/12/24 14:27:41;;;;;;;;;;;11.30;86.90;;;;;;5071836;28;20371;-37
2022/12/24 14:30:14;;;;;;;;;;;11.30;86.90;;;;;;5071745;28;19944;-36
2022/12/24 14:32:40;;;;;;;;;;;11.20;86.90;;;;;;5074837;28;19960;-36
2022/12/24 14:35:07;;;;;;;;;;;11.20;87.10;;;;;;5075536;28;19959;-36